EHAM/AMS METAR and TAF weather

Enter ICAO airport designator
Station Type Date Time Source
EHAM METAR 2019/04/18 20:55 UTC NOAA

EHAM 182055Z 07011KT 040V100 CAVOK 16/03 Q1026 NOSIG


Station Type Date Time Source
EHAM Decoded METAR 2019/04/18 20:55 UTC NOAA

Amsterdam Airport Schiphol, Netherlands (EHAM) 52-18N 004-46E -2M
Apr 18, 2019 - 04:55 PM EDT / 2019.04.18 2055 UTC
Wind: from the ENE (070 degrees) at 13 MPH (11 KT) (direction variable):0
Visibility: greater than 7 mile(s):0
Temperature: 60 F (16 C)
Dew Point: 37 F (3 C)
Relative Humidity: 41%
Pressure (altimeter): 30.30 in. Hg (1026 hPa)
ob: EHAM 182055Z 07011KT 040V100 CAVOK 16/03 Q1026 NOSIG
cycle: 21

Station Type Date Time Source
EHAM TAF 2019/04/18 18:28 UTC NOAA

TAF EHAM 181634Z 1818/1924 08011KT CAVOK
BECMG 1916/1919 05008KT

Example: see airport list